createdAt,value
2023-04-26T00:00:49.953Z,79.82
2023-04-26T00:01:49.913Z,79.51
2023-04-26T00:02:50.002Z,79.65
2023-04-26T00:03:50.155Z,81.10
2023-04-26T00:04:50.066Z,80.75
2023-04-26T00:05:49.958Z,81.20
2023-04-26T00:06:49.878Z,81.41
2023-04-26T00:07:49.890Z,82.76
2023-04-26T00:08:50.020Z,82.76
2023-04-26T00:09:49.837Z,82.24
2023-04-26T00:10:49.851Z,81.62
2023-04-26T00:11:49.841Z,81.87
2023-04-26T00:12:49.808Z,81.87
2023-04-26T00:13:49.828Z,82.42
2023-04-26T00:14:49.829Z,82.01
2023-04-26T00:15:49.921Z,81.49
2023-04-26T00:16:49.779Z,81.59
2023-04-26T00:17:49.785Z,82.21
2023-04-26T00:18:49.765Z,81.94
2023-04-26T00:19:49.761Z,81.28
2023-04-26T00:20:49.744Z,80.87
2023-04-26T00:21:49.793Z,80.97
2023-04-26T00:22:49.719Z,82.04
2023-04-26T00:23:49.719Z,82.77
2023-04-26T00:24:50.701Z,83.12
2023-04-26T00:25:49.709Z,82.56
2023-04-26T00:26:49.689Z,82.56
2023-04-26T00:27:49.680Z,82.77
2023-04-26T00:28:49.673Z,83.29
2023-04-26T00:29:49.653Z,83.08
2023-04-26T00:30:49.646Z,83.08
2023-04-26T00:31:49.688Z,81.84
2023-04-26T00:32:49.642Z,82.56
2023-04-26T00:33:49.619Z,83.22
2023-04-26T00:34:49.599Z,82.04
2023-04-26T00:35:49.579Z,81.32
2023-04-26T00:36:49.568Z,81.32
2023-04-26T00:37:49.624Z,82.18
2023-04-26T00:38:49.768Z,83.95
2023-04-26T00:39:49.559Z,83.53
2023-04-26T00:40:49.552Z,82.91
2023-04-26T00:41:49.516Z,82.53
2023-04-26T00:42:49.511Z,83.30
2023-04-26T00:43:49.537Z,82.68
2023-04-26T00:44:49.511Z,83.30
2023-04-26T00:45:49.516Z,83.23
2023-04-26T00:46:49.487Z,83.90
2023-04-26T00:47:49.531Z,85.14
2023-04-26T00:48:49.527Z,85.50
2023-04-26T00:49:49.468Z,85.29
2023-04-26T00:50:49.442Z,84.42
2023-04-26T00:51:49.418Z,83.80
2023-04-26T00:52:49.431Z,82.54
2023-04-26T00:53:49.401Z,83.06
2023-04-26T00:54:49.434Z,84.11
2023-04-26T00:55:49.436Z,84.00
2023-04-26T00:56:49.372Z,83.96
2023-04-26T00:57:49.379Z,83.65
2023-04-26T00:58:49.737Z,83.58
2023-04-26T00:59:49.358Z,83.96
2023-04-26T01:00:49.336Z,83.86
2023-04-26T01:01:49.405Z,83.65
2023-04-26T01:02:49.409Z,83.54
2023-04-26T01:03:49.526Z,84.06
2023-04-26T01:04:49.300Z,84.27
2023-04-26T01:05:49.302Z,84.59
2023-04-26T01:06:49.265Z,86.40
2023-04-26T01:07:49.271Z,86.81
2023-04-26T01:08:49.429Z,86.91
2023-04-26T01:09:49.313Z,86.40
2023-04-26T01:10:49.253Z,86.29
2023-04-26T01:11:49.225Z,86.15
2023-04-26T01:12:49.235Z,85.77
2023-04-26T01:13:49.208Z,84.98
2023-04-26T01:14:49.213Z,85.39
2023-04-26T01:15:49.198Z,85.29
2023-04-26T01:16:49.217Z,84.87
2023-04-26T01:17:49.201Z,85.19
2023-04-26T01:18:49.294Z,85.60
2023-04-26T01:19:49.177Z,84.98
2023-04-26T01:20:49.142Z,85.85
2023-04-26T01:21:49.129Z,86.27
2023-04-26T01:22:49.111Z,86.47
2023-04-26T01:23:49.123Z,86.79
2023-04-26T01:24:49.086Z,86.47
2023-04-26T01:25:49.080Z,85.85
2023-04-26T01:26:49.074Z,85.33
2023-04-26T01:27:49.067Z,85.02
2023-04-26T01:28:49.131Z,84.60
2023-04-26T01:29:49.058Z,84.50
2023-04-26T01:30:49.041Z,85.02
2023-04-26T01:31:49.019Z,84.91
2023-04-26T01:32:49.030Z,84.70
2023-04-26T01:33:49.027Z,84.50
2023-04-26T01:34:48.999Z,85.02
2023-04-26T01:35:48.971Z,84.70
2023-04-26T01:36:48.973Z,83.87
2023-04-26T01:37:48.971Z,83.76
2023-04-26T01:38:49.083Z,84.08
2023-04-26T01:39:48.945Z,86.79
2023-04-26T01:40:48.947Z,87.76
2023-04-26T01:41:48.934Z,87.45
2023-04-26T01:42:48.925Z,87.45
2023-04-26T01:43:48.917Z,86.47
2023-04-26T01:44:48.949Z,85.58
2023-04-26T01:45:48.906Z,84.74
2023-04-26T01:46:48.994Z,84.74
2023-04-26T01:47:48.920Z,84.74
2023-04-26T01:48:48.881Z,85.26
2023-04-26T01:49:48.890Z,85.26
2023-04-26T01:50:48.846Z,85.05
2023-04-26T01:51:48.845Z,86.10
2023-04-26T01:52:48.811Z,85.99
2023-04-26T01:53:48.807Z,85.89
2023-04-26T01:54:48.827Z,85.89
2023-04-26T01:55:48.810Z,84.95
2023-04-26T01:56:48.790Z,85.61
2023-04-26T01:57:48.762Z,85.36
2023-04-26T01:58:48.762Z,85.10
2023-04-26T01:59:48.776Z,85.78
2023-04-26T02:00:48.744Z,86.24
2023-04-26T02:01:48.762Z,87.35
2023-04-26T02:02:48.832Z,87.55
2023-04-26T02:03:48.753Z,86.93
2023-04-26T02:04:48.734Z,87.81
2023-04-26T02:05:48.695Z,89.16
2023-04-26T02:06:48.667Z,88.39
2023-04-26T02:07:48.689Z,87.97
2023-04-26T02:08:48.655Z,86.30
2023-04-26T02:09:48.690Z,86.41
2023-04-26T02:10:48.645Z,85.58
2023-04-26T02:11:48.634Z,85.26
2023-04-26T02:12:48.617Z,84.74
2023-04-26T02:13:48.681Z,85.05
2023-04-26T02:14:48.615Z,84.84
2023-04-26T02:15:48.605Z,84.43
2023-04-26T02:16:48.585Z,84.84
2023-04-26T02:17:48.636Z,86.66
2023-04-26T02:18:48.573Z,86.93
2023-04-26T02:19:48.561Z,86.10
2023-04-26T02:20:48.541Z,86.35
2023-04-26T02:21:48.549Z,86.24
2023-04-26T02:22:48.530Z,86.24
2023-04-26T02:23:48.520Z,85.99
2023-04-26T02:24:48.527Z,85.93
2023-04-26T02:25:48.498Z,85.72
2023-04-26T02:26:48.483Z,85.61
2023-04-26T02:27:48.474Z,85.10
2023-04-26T02:28:48.487Z,84.99
2023-04-26T02:29:48.478Z,84.26
2023-04-26T02:30:48.438Z,84.88
2023-04-26T02:31:48.468Z,85.41
2023-04-26T02:32:48.445Z,85.30
2023-04-26T02:33:48.439Z,87.63
2023-04-26T02:34:48.427Z,88.37
2023-04-26T02:35:48.387Z,87.53
2023-04-26T02:36:48.397Z,87.74
2023-04-26T02:37:48.423Z,88.16
2023-04-26T02:38:48.380Z,88.68
2023-04-26T02:39:48.386Z,88.47
2023-04-26T02:40:48.366Z,88.89
2023-04-26T02:41:48.330Z,89.10
2023-04-26T02:42:48.320Z,88.68
2023-04-26T02:43:48.316Z,88.57
2023-04-26T02:44:48.309Z,88.37
2023-04-26T02:45:48.392Z,87.53
2023-04-26T02:46:48.361Z,88.30
2023-04-26T02:47:48.335Z,88.99
2023-04-26T02:48:48.266Z,88.82
2023-04-26T02:49:48.272Z,89.87
2023-04-26T02:50:48.245Z,89.76
2023-04-26T02:51:48.237Z,89.03
2023-04-26T02:52:48.227Z,88.97
2023-04-26T02:53:48.234Z,89.07
2023-04-26T02:54:48.212Z,88.76
2023-04-26T02:55:48.217Z,88.87
2023-04-26T02:56:48.185Z,88.97
2023-04-26T02:57:48.192Z,87.78
2023-04-26T03:00:58.281Z,87.51
2023-04-26T03:01:33.142Z,86.77
2023-04-26T03:02:33.254Z,86.77
2023-04-26T03:03:33.226Z,86.46
2023-04-26T03:04:32.996Z,86.88
2023-04-26T03:05:33.004Z,87.82
2023-04-26T03:06:32.975Z,87.93
2023-04-26T03:07:32.972Z,87.61
2023-04-26T03:08:32.955Z,87.82
2023-04-26T03:09:32.946Z,87.19
2023-04-26T03:10:32.938Z,86.36
2023-04-26T03:11:32.927Z,85.94
2023-04-26T03:12:32.911Z,85.73
2023-04-26T03:13:32.905Z,85.90
2023-04-26T03:14:32.893Z,86.25
2023-04-26T03:15:32.895Z,86.05
2023-04-26T03:16:32.885Z,85.94
2023-04-26T03:17:32.934Z,86.05
2023-04-26T03:18:32.865Z,85.94
2023-04-26T03:19:32.841Z,85.98
2023-04-26T03:20:32.841Z,85.83
2023-04-26T03:21:32.831Z,86.77
2023-04-26T03:22:32.815Z,86.46
2023-04-26T03:23:32.806Z,86.57
2023-04-26T03:24:32.792Z,86.40
2023-04-26T03:25:32.796Z,86.57
2023-04-26T03:26:32.770Z,86.71
2023-04-26T03:27:32.759Z,87.09
2023-04-26T03:28:32.752Z,86.99
2023-04-26T03:29:32.743Z,87.71
2023-04-26T03:30:32.735Z,88.07
2023-04-26T03:31:32.749Z,87.71
2023-04-26T03:32:32.769Z,87.96
2023-04-26T03:33:32.709Z,87.86
2023-04-26T03:34:32.690Z,88.21
2023-04-26T03:35:32.690Z,89.58
2023-04-26T03:36:32.667Z,91.03
2023-04-26T03:37:32.666Z,90.66
2023-04-26T03:38:32.647Z,91.18
2023-04-26T03:39:32.641Z,91.81
2023-04-26T03:40:32.630Z,92.60
2023-04-26T03:41:32.616Z,91.56
2023-04-26T03:42:32.614Z,91.03
2023-04-26T03:43:32.602Z,90.41
2023-04-26T03:44:32.580Z,89.99
2023-04-26T03:45:32.619Z,89.89
2023-04-26T03:46:32.668Z,89.78
2023-04-26T03:47:32.581Z,89.15
2023-04-26T03:48:32.542Z,89.11
2023-04-26T03:49:32.532Z,89.22
2023-04-26T03:50:32.531Z,88.17
2023-04-26T03:51:32.512Z,87.76
2023-04-26T03:52:32.512Z,88.28
2023-04-26T03:53:32.507Z,89.99
2023-04-26T03:54:32.484Z,90.20
2023-04-26T03:55:32.476Z,90.72
2023-04-26T03:56:32.456Z,91.03
2023-04-26T03:57:32.449Z,89.89
2023-04-26T03:58:32.449Z,88.80
2023-04-26T03:59:32.432Z,88.74
2023-04-26T04:00:32.426Z,88.32
2023-04-26T04:01:32.405Z,89.22
2023-04-26T04:02:32.537Z,89.89
2023-04-26T04:03:32.547Z,89.26
2023-04-26T04:04:32.547Z,89.26
2023-04-26T04:05:32.416Z,89.15
2023-04-26T04:06:32.360Z,90.56
2023-04-26T04:07:32.348Z,90.34
2023-04-26T04:08:32.327Z,90.56
2023-04-26T04:09:32.338Z,90.77
2023-04-26T04:10:32.322Z,90.66
2023-04-26T04:11:32.304Z,90.52
2023-04-26T04:12:32.302Z,90.52
2023-04-26T04:13:32.286Z,89.68
2023-04-26T04:14:32.273Z,89.15
2023-04-26T04:15:32.322Z,88.84
2023-04-26T04:16:32.277Z,89.05
2023-04-26T04:17:32.310Z,88.57
2023-04-26T04:18:32.245Z,89.09
2023-04-26T04:19:32.222Z,89.30
2023-04-26T04:20:32.224Z,89.36
2023-04-26T04:21:32.199Z,88.53
2023-04-26T04:22:32.201Z,88.67
2023-04-26T04:23:32.187Z,88.21
2023-04-26T04:24:34.290Z,88.11
2023-04-26T04:25:32.169Z,89.89
2023-04-26T04:26:32.275Z,90.72
2023-04-26T04:27:32.167Z,91.46
2023-04-26T04:28:32.128Z,90.93
2023-04-26T04:29:32.124Z,91.28
2023-04-26T04:30:32.125Z,91.18
2023-04-26T04:31:32.123Z,91.35
2023-04-26T04:32:34.197Z,91.18
2023-04-26T04:33:32.080Z,91.35
2023-04-26T04:34:32.096Z,91.77
2023-04-26T04:35:32.076Z,92.54
2023-04-26T04:36:32.048Z,92.44
2023-04-26T04:37:32.044Z,92.33
2023-04-26T04:38:32.031Z,91.46
2023-04-26T04:39:32.024Z,91.14
2023-04-26T04:40:32.029Z,90.20
2023-04-26T04:41:32.003Z,89.15
2023-04-26T04:42:31.995Z,89.47
2023-04-26T04:43:31.988Z,88.84
2023-04-26T04:44:31.974Z,88.53
2023-04-26T04:45:31.968Z,89.22
2023-04-26T04:46:32.004Z,89.22
2023-04-26T04:47:31.970Z,89.22
2023-04-26T04:48:31.927Z,88.39
2023-04-26T04:49:31.928Z,88.17
2023-04-26T04:50:31.923Z,88.24
2023-04-26T04:51:31.899Z,87.76
2023-04-26T04:52:31.893Z,87.93
2023-04-26T04:53:31.882Z,87.71
2023-04-26T04:54:31.875Z,87.71
2023-04-26T04:55:31.875Z,87.82
2023-04-26T04:56:31.856Z,87.57
2023-04-26T04:57:31.845Z,87.19
2023-04-26T04:58:31.889Z,87.40
2023-04-26T04:59:31.881Z,87.19
2023-04-26T05:00:31.821Z,86.84
2023-04-26T05:01:31.816Z,86.74
2023-04-26T05:02:31.860Z,87.15
2023-04-26T05:03:31.927Z,87.37
2023-04-26T05:04:32.044Z,87.68
2023-04-26T05:05:31.760Z,87.68
2023-04-26T05:06:31.753Z,87.53
2023-04-26T05:07:31.746Z,87.43
2023-04-26T05:08:31.732Z,87.07
2023-04-26T05:09:31.726Z,87.70
2023-04-26T05:10:31.724Z,88.75
2023-04-26T05:11:31.704Z,88.85
2023-04-26T05:12:31.695Z,88.12
2023-04-26T05:13:31.679Z,88.12
2023-04-26T05:14:31.716Z,87.91
2023-04-26T05:15:31.698Z,87.55
2023-04-26T05:16:31.678Z,87.66
2023-04-26T05:17:31.707Z,87.45
2023-04-26T05:18:31.635Z,87.73
2023-04-26T05:19:31.631Z,87.41
2023-04-26T05:20:31.630Z,86.89
2023-04-26T05:21:31.616Z,87.10
2023-04-26T05:22:31.601Z,86.75
2023-04-26T05:23:31.590Z,86.85
2023-04-26T05:24:31.602Z,86.54
2023-04-26T05:25:31.582Z,86.33
2023-04-26T05:26:31.563Z,85.91
2023-04-26T05:27:31.556Z,86.22
2023-04-26T05:28:31.545Z,86.50
2023-04-26T05:29:31.536Z,85.50
2023-04-26T05:30:31.549Z,86.22
2023-04-26T05:31:31.620Z,86.43
2023-04-26T05:32:31.557Z,86.43
2023-04-26T05:33:31.495Z,86.29
2023-04-26T05:34:31.487Z,86.08
2023-04-26T05:35:31.482Z,86.60
2023-04-26T05:36:31.467Z,86.04
2023-04-26T05:37:31.455Z,85.63
2023-04-26T05:38:31.446Z,85.52
2023-04-26T05:39:31.433Z,85.52
2023-04-26T05:40:31.438Z,85.21
2023-04-26T05:41:31.410Z,85.21
2023-04-26T05:42:31.420Z,85.52
2023-04-26T05:43:31.392Z,85.06
2023-04-26T05:44:31.387Z,85.38
2023-04-26T05:45:31.449Z,85.63
2023-04-26T05:46:31.396Z,85.90
2023-04-26T05:47:31.391Z,86.11
2023-04-26T05:48:31.352Z,85.59
2023-04-26T05:49:31.330Z,85.03
2023-04-26T05:50:31.343Z,85.55
2023-04-26T05:51:31.322Z,84.89
2023-04-26T05:52:31.322Z,84.16
2023-04-26T05:53:31.294Z,84.43
2023-04-26T05:54:31.286Z,84.22
2023-04-26T05:55:31.293Z,83.50
2023-04-26T05:56:31.264Z,83.67
2023-04-26T05:57:31.417Z,83.60
2023-04-26T05:58:31.251Z,83.15
2023-04-26T05:59:31.255Z,83.46
2023-04-26T06:00:31.234Z,82.73
2023-04-26T06:01:31.220Z,82.49
2023-04-26T06:02:31.313Z,82.76
2023-04-26T06:03:31.431Z,81.99
2023-04-26T06:04:31.279Z,81.48
2023-04-26T06:05:31.242Z,81.48
2023-04-26T06:06:31.162Z,80.96
2023-04-26T06:07:31.150Z,80.92
2023-04-26T06:08:31.149Z,80.51
2023-04-26T06:09:31.124Z,80.71
2023-04-26T06:10:31.129Z,80.51
2023-04-26T06:11:31.126Z,80.51
2023-04-26T06:12:31.122Z,79.95
2023-04-26T06:13:31.091Z,80.57
2023-04-26T06:14:31.202Z,80.05
2023-04-26T06:15:31.085Z,80.68
2023-04-26T06:16:31.133Z,80.33
2023-04-26T06:17:31.060Z,79.16
2023-04-26T06:18:31.052Z,79.36
2023-04-26T06:19:31.028Z,79.16
2023-04-26T06:20:31.040Z,78.22
2023-04-26T06:21:31.007Z,78.64
2023-04-26T06:22:30.997Z,78.64
2023-04-26T06:23:31.004Z,78.67
2023-04-26T06:24:30.982Z,78.67
2023-04-26T06:25:30.975Z,80.19
2023-04-26T06:26:30.978Z,80.26
2023-04-26T06:27:30.949Z,78.29
2023-04-26T06:28:30.954Z,78.05
2023-04-26T06:29:30.930Z,76.67
2023-04-26T06:30:30.937Z,76.77
2023-04-26T06:31:31.020Z,77.36
2023-04-26T06:32:30.924Z,77.29
2023-04-26T06:33:30.889Z,77.29
2023-04-26T06:34:30.880Z,77.60
2023-04-26T06:35:30.875Z,77.39
2023-04-26T06:36:30.886Z,77.81
2023-04-26T06:37:30.848Z,77.60
2023-04-26T06:38:30.841Z,77.50
2023-04-26T06:39:30.831Z,76.53
2023-04-26T06:40:30.828Z,76.08
2023-04-26T06:41:30.814Z,75.43
2023-04-26T06:42:30.794Z,74.33
2023-04-26T06:43:31.020Z,73.47
2023-04-26T06:44:30.877Z,72.64
2023-04-26T06:45:30.763Z,72.16
2023-04-26T06:46:30.814Z,70.69
2023-04-26T06:47:30.826Z,70.56
2023-04-26T06:48:30.741Z,68.63
2023-04-26T06:49:30.740Z,69.56
2023-04-26T06:50:30.720Z,69.90
2023-04-26T06:51:30.710Z,70.76
2023-04-26T06:52:30.691Z,70.38
2023-04-26T06:53:30.680Z,71.48
2023-04-26T06:54:30.668Z,70.08
2023-04-26T06:55:30.668Z,68.57
2023-04-26T06:56:30.662Z,66.74
2023-04-26T06:57:30.650Z,65.62
2023-04-26T06:58:30.638Z,62.36
2023-04-26T06:59:30.628Z,60.97
2023-04-26T07:00:30.766Z,58.80
2023-04-26T07:01:30.646Z,59.80
2023-04-26T07:02:30.687Z,57.88
2023-04-26T07:03:30.684Z,58.14
2023-04-26T07:04:30.952Z,58.07
2023-04-26T07:05:30.560Z,57.76
2023-04-26T07:06:30.571Z,57.56
2023-04-26T07:07:30.538Z,57.17
2023-04-26T07:08:30.527Z,58.12
2023-04-26T07:09:30.518Z,58.12
2023-04-26T07:10:30.515Z,58.58
2023-04-26T07:11:30.509Z,57.84
2023-04-26T07:12:30.481Z,56.48
2023-04-26T07:13:30.468Z,56.56
2023-04-26T07:14:30.466Z,55.54
2023-04-26T07:15:30.455Z,56.40
2023-04-26T07:16:30.716Z,55.84
2023-04-26T07:17:30.447Z,57.04
2023-04-26T07:18:30.424Z,53.63
2023-04-26T07:19:30.413Z,50.45
2023-04-26T07:20:30.404Z,51.41
2023-04-26T07:21:30.404Z,52.40
2023-04-26T07:22:30.385Z,55.63
2023-04-26T07:23:30.369Z,56.29
2023-04-26T07:24:30.358Z,53.32
2023-04-26T07:25:30.345Z,50.65
2023-04-26T07:26:30.355Z,50.55
2023-04-26T07:27:30.324Z,50.42
2023-04-26T07:28:30.315Z,50.79
2023-04-26T07:29:30.302Z,53.34
2023-04-26T07:30:30.295Z,56.85
2023-04-26T07:31:30.295Z,52.29
2023-04-26T07:32:30.380Z,55.26
2023-04-26T07:33:30.326Z,55.74
2023-04-26T07:34:30.259Z,59.63
2023-04-26T07:35:30.257Z,56.59
2023-04-26T07:36:30.248Z,59.07
2023-04-26T07:37:30.227Z,59.68
2023-04-26T07:38:30.218Z,57.74
2023-04-26T07:39:30.213Z,57.84
2023-04-26T07:40:30.190Z,58.15
2023-04-26T07:41:30.196Z,58.97
2023-04-26T07:42:30.176Z,58.04
2023-04-26T07:43:30.162Z,58.25
2023-04-26T07:44:30.165Z,57.23
2023-04-26T07:45:30.176Z,58.45
2023-04-26T07:46:30.150Z,57.92
2023-04-26T07:47:30.127Z,55.54
2023-04-26T07:48:30.129Z,56.69
2023-04-26T07:49:30.100Z,57.71
2023-04-26T07:50:30.091Z,57.20
2023-04-26T07:51:30.097Z,55.92
2023-04-26T07:52:30.076Z,57.84
2023-04-26T07:53:30.059Z,55.79
2023-04-26T07:54:30.045Z,57.33
2023-04-26T07:55:30.031Z,57.61
2023-04-26T07:56:30.028Z,57.51
2023-04-26T07:57:30.026Z,56.79
2023-04-26T07:58:30.011Z,54.74
2023-04-26T07:59:29.988Z,55.46
2023-04-26T08:00:29.986Z,56.35
2023-04-26T08:01:29.966Z,56.69
2023-04-26T08:02:43.527Z,55.77
2023-04-26T08:03:31.120Z,57.10
2023-04-26T08:04:30.141Z,53.41
2023-04-26T08:05:30.145Z,54.08
2023-04-26T08:06:29.921Z,55.00
2023-04-26T08:07:29.933Z,56.15
2023-04-26T08:08:29.896Z,56.67
2023-04-26T08:09:29.890Z,57.51
2023-04-26T08:10:29.897Z,57.92
2023-04-26T08:11:29.896Z,59.48
2023-04-26T08:12:29.873Z,57.98
2023-04-26T08:13:29.845Z,58.00
2023-04-26T08:14:29.850Z,58.39
2023-04-26T08:15:30.074Z,59.00
2023-04-26T09:35:36.153Z,43.85
2023-04-26T09:36:36.108Z,46.20
2023-04-26T09:37:41.168Z,50.36
2023-04-26T10:33:03.324Z,41.38
2023-04-26T10:34:03.190Z,43.10
2023-04-26T10:35:03.178Z,41.09
2023-04-26T10:36:03.179Z,43.65
2023-04-26T10:37:03.151Z,44.67
2023-04-26T10:38:03.142Z,44.57
2023-04-26T10:39:03.132Z,41.84
2023-04-26T10:40:03.120Z,43.98
2023-04-26T10:41:03.103Z,43.77
2023-04-26T10:42:03.102Z,44.49
2023-04-26T10:43:03.083Z,45.00
2023-04-26T10:44:03.089Z,43.67
2023-04-26T10:45:03.059Z,46.75
2023-04-26T10:46:03.109Z,46.55
2023-04-26T10:47:03.058Z,46.24
2023-04-26T10:48:03.058Z,47.09
2023-04-26T10:49:03.047Z,47.63
2023-04-26T10:50:05.110Z,48.47
2023-04-26T10:51:03.015Z,49.57
2023-04-26T10:52:03.006Z,49.37
2023-04-26T10:53:03.005Z,49.37
2023-04-26T10:54:03.013Z,49.38
2023-04-26T10:55:02.978Z,49.37
2023-04-26T10:56:02.979Z,49.77
2023-04-26T10:57:02.946Z,49.67
2023-04-26T10:58:02.950Z,48.14
2023-04-26T10:59:06.278Z,47.83
2023-04-26T11:00:03.917Z,49.57
2023-04-26T11:01:02.939Z,48.16
2023-04-26T11:02:02.910Z,48.24
2023-04-26T11:03:02.952Z,44.78
2023-04-26T11:04:02.955Z,45.49
2023-04-26T11:05:02.990Z,46.10
2023-04-26T11:06:02.864Z,46.10
2023-04-26T11:07:02.840Z,47.40
2023-04-26T11:08:02.872Z,46.87
2023-04-26T11:09:02.827Z,46.14
2023-04-26T11:10:02.828Z,45.10
2023-04-26T11:11:03.948Z,45.01
2023-04-26T11:12:03.947Z,43.43
2023-04-26T11:13:03.952Z,47.00
2023-04-26T11:14:03.921Z,49.13
2023-04-26T11:15:03.924Z,42.71
2023-04-26T11:16:03.978Z,44.55
2023-04-26T11:17:03.881Z,45.45
2023-04-26T11:18:03.966Z,41.82
2023-04-26T11:19:03.890Z,43.77
2023-04-26T11:20:04.048Z,43.65
2023-04-26T11:21:03.841Z,45.28
2023-04-26T11:22:03.855Z,43.26
2023-04-26T11:23:04.846Z,44.10
2023-04-26T11:24:03.852Z,43.51
2023-04-26T11:25:03.813Z,45.17
2023-04-26T11:26:03.814Z,47.49
2023-04-26T11:27:03.828Z,45.17
2023-04-26T11:28:03.815Z,48.82
2023-04-26T11:29:03.786Z,46.57
2023-04-26T11:30:03.854Z,45.65
2023-04-26T11:31:05.965Z,45.98
2023-04-26T11:32:03.766Z,47.88
2023-04-26T11:33:03.794Z,47.39
2023-04-26T11:34:03.757Z,46.55
2023-04-26T11:35:03.723Z,48.18
2023-04-26T11:36:03.761Z,48.14
2023-04-26T11:37:03.710Z,46.81
2023-04-26T11:38:03.699Z,46.51
2023-04-26T11:39:03.707Z,47.89
2023-04-26T11:40:03.709Z,48.02
2023-04-26T11:41:03.675Z,48.30
2023-04-26T11:42:03.662Z,44.53
2023-04-26T11:43:03.676Z,43.10
2023-04-26T11:44:03.669Z,42.80
2023-04-26T11:45:03.635Z,45.54
2023-04-26T11:46:03.691Z,43.71
2023-04-26T11:47:03.651Z,43.20
2023-04-26T11:48:03.623Z,45.95
2023-04-26T11:49:03.582Z,49.48
2023-04-26T11:50:03.584Z,46.30
2023-04-26T11:51:03.568Z,45.56
2023-04-26T11:52:03.577Z,43.51
2023-04-26T11:53:03.564Z,43.59
2023-04-26T11:54:03.537Z,44.51
2023-04-26T11:55:03.529Z,45.60
2023-04-26T11:56:03.551Z,42.55
2023-04-26T11:57:03.514Z,43.47
2023-04-26T11:58:03.503Z,42.68
2023-04-26T11:59:03.470Z,43.71
2023-04-26T12:00:03.459Z,45.34
2023-04-26T12:01:03.459Z,41.47
2023-04-26T12:02:03.488Z,43.81
2023-04-26T12:03:03.683Z,43.41
2023-04-26T12:04:03.568Z,42.59
2023-04-26T12:05:03.682Z,42.90
2023-04-26T12:06:03.415Z,44.75
2023-04-26T12:07:03.390Z,43.43
2023-04-26T12:08:03.412Z,41.84
2023-04-26T12:09:03.505Z,43.16
2023-04-26T12:10:03.396Z,45.91
2023-04-26T12:11:03.408Z,45.71
2023-04-26T12:12:03.369Z,46.72
2023-04-26T12:13:03.366Z,46.01
2023-04-26T12:14:03.376Z,44.79
2023-04-26T12:15:03.343Z,45.91
2023-04-26T12:16:07.342Z,46.60
2023-04-26T12:17:04.460Z,42.43
2023-04-26T12:18:03.366Z,44.16
2023-04-26T12:19:03.337Z,45.28
2023-04-26T12:20:03.351Z,44.26
2023-04-26T12:21:03.278Z,46.78
2023-04-26T12:22:03.266Z,46.07
2023-04-26T12:23:03.271Z,44.63
2023-04-26T12:24:03.238Z,43.51
2023-04-26T12:25:03.302Z,44.38
2023-04-26T12:26:03.214Z,42.47
2023-04-26T12:27:03.215Z,40.93
2023-04-26T12:28:03.252Z,40.83
2023-04-26T12:29:03.210Z,40.30
2023-04-26T12:30:03.208Z,38.68
2023-04-26T12:31:03.814Z,38.81
2023-04-26T12:32:03.425Z,41.25
2023-04-26T12:33:15.684Z,42.68
2023-04-26T12:34:05.130Z,40.46
2023-04-26T12:35:03.166Z,40.27
2023-04-26T12:36:03.127Z,41.23
2023-04-26T12:37:03.114Z,42.06
2023-04-26T12:38:03.092Z,42.88
2023-04-26T12:39:03.084Z,41.80
2023-04-26T12:40:03.077Z,44.06
2023-04-26T12:41:03.068Z,44.69
2023-04-26T12:42:03.059Z,46.81
2023-04-26T12:43:03.085Z,45.77
2023-04-26T12:44:03.042Z,44.45
2023-04-26T12:45:03.052Z,47.58
2023-04-26T12:46:03.071Z,43.73
2023-04-26T12:47:03.011Z,47.89
2023-04-26T12:48:03.044Z,48.10
2023-04-26T12:49:03.007Z,43.08
2023-04-26T12:50:02.967Z,43.16
2023-04-26T12:51:02.961Z,45.68
2023-04-26T12:52:02.943Z,43.35
2023-04-26T12:53:02.955Z,40.39
2023-04-26T12:54:02.944Z,43.57
2023-04-26T12:55:02.922Z,44.71
2023-04-26T12:56:02.906Z,47.34
2023-04-26T12:57:02.929Z,46.09
2023-04-26T12:58:02.894Z,44.87
2023-04-26T12:59:02.889Z,45.76
2023-04-26T13:00:02.880Z,46.07
2023-04-26T13:01:02.935Z,44.24
2023-04-26T13:02:02.882Z,44.83
2023-04-26T13:03:03.029Z,41.84
2023-04-26T13:04:02.977Z,43.23
2023-04-26T13:05:02.890Z,43.32
2023-04-26T13:06:02.829Z,42.90
2023-04-26T13:07:02.784Z,45.64
2023-04-26T13:08:02.812Z,43.29
2023-04-26T13:09:02.760Z,41.66
2023-04-26T13:10:02.768Z,44.32
2023-04-26T13:11:02.760Z,43.12
2023-04-26T13:12:02.724Z,41.40
2023-04-26T13:13:02.753Z,42.00
2023-04-26T13:14:02.756Z,40.79
2023-04-26T13:15:02.717Z,40.48
2023-04-26T13:16:02.763Z,39.98
2023-04-26T13:17:02.715Z,39.25
2023-04-26T13:18:02.745Z,39.94
2023-04-26T13:19:02.717Z,39.94
2023-04-26T13:20:02.694Z,38.10
2023-04-26T13:21:02.668Z,40.04
2023-04-26T13:22:02.651Z,37.64
2023-04-26T13:23:02.635Z,40.18
2023-04-26T13:24:02.678Z,43.23
2023-04-26T13:25:02.785Z,42.51
2023-04-26T13:26:02.606Z,42.51
2023-04-26T13:27:02.628Z,44.26
2023-04-26T13:28:02.606Z,40.81
2023-04-26T13:29:02.578Z,40.84
2023-04-26T13:30:02.568Z,41.99
2023-04-26T13:31:02.600Z,41.96
2023-04-26T13:32:02.560Z,39.83
2023-04-26T13:33:02.558Z,41.64
2023-04-26T13:34:02.518Z,42.02
2023-04-26T13:35:02.540Z,44.38
2023-04-26T13:36:02.493Z,44.81
2023-04-26T13:37:02.504Z,44.20
2023-04-26T13:38:02.485Z,44.68
2023-04-26T13:39:02.468Z,44.46
2023-04-26T13:40:02.465Z,42.13
2023-04-26T13:41:02.491Z,40.50
2023-04-26T13:42:02.448Z,40.93
2023-04-26T13:43:02.480Z,43.51
2023-04-26T13:44:02.425Z,44.02
2023-04-26T13:45:02.422Z,44.91
2023-04-26T13:46:02.436Z,42.86
2023-04-26T13:47:02.401Z,41.42
2023-04-26T13:48:02.458Z,40.42
2023-04-26T13:49:02.354Z,45.07
2023-04-26T13:50:02.357Z,41.58
2023-04-26T13:51:03.577Z,39.51
2023-04-26T13:52:03.333Z,38.93
2023-04-26T13:53:02.329Z,39.73
2023-04-26T13:54:02.320Z,43.04
2023-04-26T13:55:02.300Z,42.11
2023-04-26T13:56:02.307Z,40.19
2023-04-26T13:57:02.273Z,41.09
2023-04-26T13:58:02.266Z,40.81
2023-04-26T13:59:02.257Z,40.91
2023-04-26T14:00:02.307Z,39.90
2023-04-26T14:01:02.266Z,38.91
2023-04-26T14:02:02.271Z,38.91
2023-04-26T14:03:02.453Z,37.18
2023-04-26T14:04:02.679Z,40.22
2023-04-26T14:05:02.343Z,40.12
2023-04-26T14:06:02.202Z,39.53
2023-04-26T14:07:02.176Z,41.56
2023-04-26T14:08:02.190Z,42.37
2023-04-26T14:09:02.175Z,42.37
2023-04-26T14:10:02.195Z,41.86
2023-04-26T14:11:02.156Z,42.19
2023-04-26T14:12:08.607Z,40.06
2023-04-26T14:13:04.133Z,40.56
2023-04-26T14:14:02.127Z,40.06
2023-04-26T14:15:02.095Z,40.56
2023-04-26T14:16:02.122Z,42.94
2023-04-26T14:17:02.079Z,41.11
2023-04-26T14:18:02.194Z,40.48
2023-04-26T14:19:02.054Z,40.99
2023-04-26T14:20:02.110Z,40.16
2023-04-26T14:21:02.047Z,39.84
2023-04-26T14:22:02.047Z,38.52
2023-04-26T14:23:02.037Z,37.61
2023-04-26T14:24:02.044Z,39.03
2023-04-26T14:25:02.052Z,39.84
2023-04-26T14:26:02.013Z,43.29
2023-04-26T14:27:01.996Z,42.05
2023-04-26T14:28:02.001Z,37.67
2023-04-26T14:29:01.962Z,35.97
2023-04-26T14:30:01.942Z,37.73
2023-04-26T14:31:01.947Z,42.90
2023-04-26T14:32:02.019Z,37.93
2023-04-26T14:33:01.953Z,37.44
2023-04-26T14:34:01.929Z,39.49
2023-04-26T14:35:01.885Z,41.64
2023-04-26T14:36:01.887Z,41.42
2023-04-26T14:37:01.884Z,40.99
2023-04-26T14:38:01.908Z,40.28
2023-04-26T14:39:01.889Z,41.58
2023-04-26T14:40:01.934Z,39.98
2023-04-26T14:41:01.864Z,40.79
2023-04-26T14:42:01.866Z,41.58
2023-04-26T14:43:01.839Z,39.86
2023-04-26T14:44:01.846Z,40.04
2023-04-26T14:45:01.816Z,41.36
2023-04-26T14:46:01.823Z,41.52
2023-04-26T14:47:01.791Z,41.63
2023-04-26T14:48:01.815Z,40.71
2023-04-26T14:49:01.773Z,37.98
2023-04-26T14:50:01.785Z,36.87
2023-04-26T14:51:01.740Z,37.62
2023-04-26T14:52:01.725Z,39.59
2023-04-26T14:53:01.754Z,40.93
2023-04-26T14:54:01.722Z,40.22
2023-04-26T14:55:01.699Z,42.54
2023-04-26T14:56:01.676Z,44.74
2023-04-26T14:57:01.730Z,41.99
2023-04-26T14:58:01.699Z,41.36
2023-04-26T14:59:01.699Z,40.67
2023-04-26T15:00:01.656Z,40.48
2023-04-26T15:01:01.689Z,40.81
2023-04-26T15:02:01.686Z,41.62
2023-04-26T15:03:01.798Z,41.64
2023-04-26T15:04:01.962Z,41.64
2023-04-26T15:05:01.643Z,41.66
2023-04-26T15:06:01.607Z,39.83
2023-04-26T15:07:01.575Z,40.64
2023-04-26T15:08:01.564Z,39.44